Time;durP1;ratioP1;P1;durP2;ratioP2;P2;SDS_P1;SDS_P2;PMS_P1;PMS_P2;Temp;Humidity;BMP_temperature;BMP_pressure;BME280_temperature;BME280_humidity;BME280_pressure;Samples;Min_cycle;Max_cycle;Signal;HPM_P1;HPM_P2
2021/12/22 00:00:59;;;;;;;20.77;10.48;;;2.00;99.90;;;;;;5047067;28;20029;-75
2021/12/22 00:03:25;;;;;;;20.00;10.07;;;2.00;99.90;;;;;;5049801;28;20094;-74
2021/12/22 00:05:52;;;;;;;22.67;11.57;;;2.00;99.90;;;;;;5047030;28;20075;-75
2021/12/22 00:08:18;;;;;;;19.25;10.32;;;2.00;99.90;;;;;;5047471;28;20051;-75
2021/12/22 00:10:47;;;;;;;21.60;10.70;;;2.00;99.90;;;;;;5047772;28;20111;-75
2021/12/22 00:13:13;;;;;;;19.60;9.90;;;2.10;99.90;;;;;;5047917;28;20025;-75
2021/12/22 00:15:39;;;;;;;19.17;10.27;;;2.10;99.90;;;;;;5049262;28;20384;-75
2021/12/22 00:18:05;;;;;;;24.55;11.85;;;2.00;99.90;;;;;;5047802;28;20033;-75
2021/12/22 00:20:31;;;;;;;22.17;10.30;;;2.00;99.90;;;;;;5047644;28;20506;-75
2021/12/22 00:22:57;;;;;;;20.25;10.68;;;2.00;99.90;;;;;;5046632;28;20529;-75
2021/12/22 00:25:25;;;;;;;20.90;10.93;;;2.00;99.90;;;;;;5047754;28;20021;-75
2021/12/22 00:27:52;;;;;;;21.35;10.93;;;1.90;99.90;;;;;;5048612;28;20017;-75
2021/12/22 00:30:18;;;;;;;22.17;10.05;;;2.00;99.90;;;;;;5048196;28;20041;-75
2021/12/22 00:32:51;;;;;;;24.33;11.35;;;2.00;99.90;;;;;;5047589;28;20022;-75
2021/12/22 00:35:20;;;;;;;19.63;10.60;;;2.00;99.90;;;;;;5047569;28;20052;-74
2021/12/22 00:37:45;;;;;;;20.73;9.98;;;2.00;99.90;;;;;;5046225;28;20025;-75
2021/12/22 00:40:11;;;;;;;18.77;10.15;;;1.90;99.90;;;;;;5048001;28;20032;-75
2021/12/22 00:42:37;;;;;;;16.55;8.73;;;1.80;99.90;;;;;;5047323;28;20090;-75
2021/12/22 00:45:04;;;;;;;16.20;8.35;;;1.80;99.90;;;;;;5047544;28;20530;-75
2021/12/22 00:47:31;;;;;;;20.30;10.93;;;1.90;99.90;;;;;;5047081;28;20167;-75
2021/12/22 00:49:59;;;;;;;17.90;9.80;;;1.80;99.90;;;;;;5047505;28;20035;-75
2021/12/22 00:52:25;;;;;;;18.77;9.50;;;1.90;99.90;;;;;;5048704;28;20498;-75
2021/12/22 00:54:51;;;;;;;15.48;9.27;;;1.90;99.90;;;;;;5050309;28;20052;-75
2021/12/22 00:57:17;;;;;;;17.15;9.15;;;1.90;99.90;;;;;;5051117;28;20044;-75
2021/12/22 00:59:45;;;;;;;18.65;9.00;;;2.00;99.90;;;;;;5051273;28;20033;-75
2021/12/22 01:02:14;;;;;;;20.58;10.07;;;2.00;99.90;;;;;;5050846;28;20021;-74
2021/12/22 01:04:40;;;;;;;17.67;9.23;;;1.90;99.90;;;;;;5049838;28;20120;-74
2021/12/22 01:07:06;;;;;;;20.95;10.25;;;1.90;99.90;;;;;;5050553;28;20034;-75
2021/12/22 01:09:33;;;;;;;19.83;9.43;;;1.80;99.90;;;;;;5052846;28;20083;-75
2021/12/22 01:11:58;;;;;;;17.58;8.60;;;1.90;99.90;;;;;;5050706;28;20025;-74
2021/12/22 01:14:25;;;;;;;18.33;9.18;;;1.80;99.90;;;;;;5049573;28;20033;-75
2021/12/22 01:16:54;;;;;;;18.42;9.45;;;1.90;99.90;;;;;;5050491;28;20502;-74
2021/12/22 01:19:31;;;;;;;17.85;8.85;;;1.90;99.90;;;;;;5049964;28;20051;-74
2021/12/22 01:22:05;;;;;;;15.70;8.95;;;2.00;99.90;;;;;;5050817;28;20036;-75
2021/12/22 01:24:34;;;;;;;20.70;9.15;;;1.80;99.90;;;;;;5052506;28;20059;-75
2021/12/22 01:27:06;;;;;;;17.50;9.43;;;1.90;99.90;;;;;;5050549;28;20035;-74
2021/12/22 01:29:33;;;;;;;16.50;8.68;;;1.90;99.90;;;;;;5050668;28;20111;-75
2021/12/22 01:32:00;;;;;;;15.95;9.30;;;1.90;99.90;;;;;;5050225;28;20032;-74
2021/12/22 01:34:26;;;;;;;18.30;8.85;;;1.90;99.90;;;;;;5049227;28;20078;-74
2021/12/22 01:36:52;;;;;;;17.50;8.60;;;1.80;99.90;;;;;;5049948;28;20029;-75
2021/12/22 01:39:18;;;;;;;17.23;8.38;;;1.80;99.90;;;;;;5050493;28;20571;-75
2021/12/22 01:41:45;;;;;;;18.50;9.52;;;1.90;99.90;;;;;;5050413;28;20560;-75
2021/12/22 01:44:13;;;;;;;16.10;8.50;;;1.90;99.90;;;;;;5049966;28;20040;-74
2021/12/22 01:49:44;;;;;;;15.73;8.65;;;1.90;99.90;;;;;;5050787;28;20032;-74
2021/12/22 01:52:11;;;;;;;17.17;8.13;;;1.90;99.90;;;;;;5049879;28;20100;-74
2021/12/22 01:55:03;;;;;;;16.40;8.85;;;1.90;99.90;;;;;;5052111;28;20055;-74
2021/12/22 01:57:29;;;;;;;13.75;7.75;;;1.90;99.90;;;;;;5051616;28;20036;-75
2021/12/22 01:59:55;;;;;;;17.17;9.18;;;1.90;99.90;;;;;;5050141;28;20025;-74
2021/12/22 02:02:21;;;;;;;14.30;7.90;;;1.90;99.90;;;;;;5044875;28;20101;-74
2021/12/22 02:04:47;;;;;;;13.93;8.88;;;1.80;99.90;;;;;;5038190;28;20530;-75
2021/12/22 02:07:14;;;;;;;15.88;8.38;;;1.80;99.90;;;;;;5033941;28;20402;-74
2021/12/22 02:12:07;;;;;;;17.02;8.45;;;1.70;99.90;;;;;;5049556;28;20021;-74
2021/12/22 02:14:33;;;;;;;15.25;8.43;;;1.70;99.90;;;;;;5049514;28;20029;-74
2021/12/22 02:16:59;;;;;;;14.93;8.05;;;1.70;99.90;;;;;;5048587;28;20023;-75
2021/12/22 02:19:25;;;;;;;16.80;8.65;;;1.60;99.90;;;;;;5049532;28;20103;-74
2021/12/22 02:21:55;;;;;;;16.77;8.20;;;1.60;99.90;;;;;;5048934;28;20510;-75
2021/12/22 02:24:21;;;;;;;15.77;8.02;;;1.60;99.90;;;;;;5050809;28;20046;-74
2021/12/22 02:26:59;;;;;;;12.82;7.60;;;1.60;99.90;;;;;;5049538;28;20025;-75
2021/12/22 02:29:34;;;;;;;13.25;7.32;;;1.60;99.90;;;;;;5049660;28;20025;-75
2021/12/22 02:32:07;;;;;;;13.88;7.40;;;1.60;99.90;;;;;;5049162;28;20059;-74
2021/12/22 02:34:40;;;;;;;15.23;8.60;;;1.60;99.90;;;;;;5047644;28;20028;-74
2021/12/22 02:37:11;;;;;;;13.93;8.32;;;1.60;99.90;;;;;;5048913;28;20025;-75
2021/12/22 02:39:37;;;;;;;15.57;7.80;;;1.50;99.90;;;;;;5051059;28;20037;-75
2021/12/22 02:42:09;;;;;;;15.38;8.23;;;1.60;99.90;;;;;;5048965;28;20894;-75
2021/12/22 02:44:34;;;;;;;;;;;1.50;99.90;;;;;;5049466;28;20065;-75
2021/12/22 02:47:18;;;;;;;13.70;7.35;;;1.60;99.90;;;;;;5049276;28;19967;-74
2021/12/22 02:49:43;;;;;;;16.65;7.45;;;1.60;99.90;;;;;;5048873;28;20017;-74
2021/12/22 02:52:09;;;;;;;14.52;7.97;;;1.60;99.90;;;;;;5049220;28;20051;-75
2021/12/22 02:54:41;;;;;;;16.10;7.80;;;1.60;99.90;;;;;;5050754;28;20060;-74
2021/12/22 02:57:20;;;;;;;14.75;8.20;;;1.50;99.90;;;;;;5047571;28;20037;-74
2021/12/22 03:00:06;;;;;;;15.32;8.38;;;1.40;99.90;;;;;;5049447;28;20074;-74
2021/12/22 03:02:43;;;;;;;17.70;8.75;;;1.50;99.90;;;;;;5048498;28;20029;-74
2021/12/22 03:05:10;;;;;;;14.52;7.25;;;1.50;99.90;;;;;;5048826;28;20047;-74
2021/12/22 03:07:37;;;;;;;15.93;8.55;;;1.40;99.90;;;;;;5048863;28;20020;-74
2021/12/22 03:10:12;;;;;;;13.55;8.35;;;1.40;99.90;;;;;;5048622;28;20021;-74
2021/12/22 03:12:39;;;;;;;13.13;7.63;;;1.50;99.90;;;;;;5050547;28;20021;-74
2021/12/22 03:15:07;;;;;;;14.77;8.68;;;1.50;99.90;;;;;;5047055;28;20053;-74
2021/12/22 03:17:33;;;;;;;18.10;8.55;;;1.40;99.90;;;;;;5048179;28;20036;-74
2021/12/22 03:19:59;;;;;;;17.05;8.05;;;1.40;99.90;;;;;;5048505;28;20514;-74
2021/12/22 03:22:25;;;;;;;17.13;8.30;;;1.40;99.90;;;;;;5049000;28;20402;-74
2021/12/22 03:24:52;;;;;;;16.35;8.45;;;1.40;99.90;;;;;;5049351;28;20500;-74
2021/12/22 03:27:19;;;;;;;17.00;8.27;;;1.50;99.90;;;;;;5049061;28;20120;-74
2021/12/22 03:29:46;;;;;;;14.48;8.07;;;1.40;99.90;;;;;;5047887;28;20151;-74
2021/12/22 03:32:12;;;;;;;17.52;8.13;;;1.30;99.90;;;;;;5048044;28;20104;-74
2021/12/22 03:34:39;;;;;;;14.95;7.80;;;1.30;99.90;;;;;;5048069;28;20494;-74
2021/12/22 03:37:06;;;;;;;15.95;8.65;;;1.40;99.90;;;;;;5048856;28;20037;-74
2021/12/22 03:39:32;;;;;;;13.43;8.02;;;1.40;99.90;;;;;;5048747;28;20025;-74
2021/12/22 03:41:59;;;;;;;13.60;7.78;;;1.40;99.90;;;;;;5046904;28;20516;-74
2021/12/22 03:44:24;;;;;;;15.57;8.98;;;1.60;99.90;;;;;;5048479;28;20099;-74
2021/12/22 03:46:51;;;;;;;15.55;7.97;;;1.50;99.90;;;;;;5048185;28;20514;-74
2021/12/22 03:49:17;;;;;;;12.50;7.18;;;1.40;99.90;;;;;;5047090;28;20499;-74
2021/12/22 03:51:44;;;;;;;15.75;8.40;;;1.40;99.90;;;;;;5048851;28;20021;-75
2021/12/22 03:54:14;;;;;;;14.48;7.70;;;1.40;99.90;;;;;;5047126;28;20063;-74
2021/12/22 03:56:40;;;;;;;14.43;7.57;;;1.40;99.90;;;;;;5048175;28;20029;-74
2021/12/22 03:59:06;;;;;;;13.27;7.40;;;1.40;99.90;;;;;;5048766;28;20032;-74
2021/12/22 04:01:33;;;;;;;12.25;7.28;;;1.40;99.90;;;;;;5047945;28;20033;-74
2021/12/22 04:04:03;;;;;;;16.17;8.30;;;1.40;99.90;;;;;;5048678;28;20128;-75
2021/12/22 04:06:29;;;;;;;13.85;7.82;;;1.40;99.90;;;;;;5045435;28;20020;-75
2021/12/22 04:08:55;;;;;;;14.68;7.68;;;1.40;99.90;;;;;;5047949;28;20029;-74
2021/12/22 04:11:21;;;;;;;12.38;7.00;;;1.40;99.90;;;;;;5046523;28;20021;-74
2021/12/22 04:13:46;;;;;;;14.32;7.68;;;1.40;99.90;;;;;;5048800;28;20113;-75
2021/12/22 04:16:12;;;;;;;13.45;7.43;;;1.40;99.90;;;;;;5046644;28;20568;-74
2021/12/22 04:18:38;;;;;;;14.18;7.72;;;1.40;99.90;;;;;;5048477;28;20037;-74
2021/12/22 04:21:04;;;;;;;15.10;7.82;;;1.40;99.90;;;;;;5047846;28;20499;-74
2021/12/22 04:23:29;;;;;;;15.40;8.20;;;1.40;99.90;;;;;;5047914;28;20578;-74
2021/12/22 04:25:56;;;;;;;13.38;6.78;;;1.40;99.90;;;;;;5048374;28;20021;-74
2021/12/22 04:28:22;;;;;;;14.10;7.35;;;1.40;99.90;;;;;;5052133;28;20108;-75
2021/12/22 04:30:49;;;;;;;13.98;7.40;;;1.40;99.90;;;;;;5052435;28;20112;-74
2021/12/22 04:33:19;;;;;;;13.18;7.13;;;1.40;99.90;;;;;;5053010;28;20025;-74
2021/12/22 04:35:45;;;;;;;13.88;7.15;;;1.40;99.90;;;;;;5051598;28;20099;-75
2021/12/22 04:38:11;;;;;;;14.48;7.10;;;1.40;99.90;;;;;;5050089;28;20021;-74
2021/12/22 04:40:37;;;;;;;13.63;7.43;;;1.40;99.90;;;;;;5051536;28;20036;-74
2021/12/22 04:43:03;;;;;;;12.95;6.97;;;1.40;99.90;;;;;;5051544;28;20115;-74
2021/12/22 04:45:30;;;;;;;16.73;7.93;;;1.30;99.90;;;;;;5053351;28;20094;-74
2021/12/22 04:47:57;;;;;;;15.10;7.28;;;1.30;99.90;;;;;;5051557;28;20025;-74
2021/12/22 04:50:22;;;;;;;12.95;6.78;;;1.20;99.90;;;;;;5050319;28;20056;-74
2021/12/22 04:55:22;;;;;;;13.52;7.03;;;1.20;99.90;;;;;;5036363;28;20468;-75
2021/12/22 04:57:48;;;;;;;11.18;6.57;;;1.30;99.90;;;;;;5052329;28;20099;-74
2021/12/22 05:00:15;;;;;;;13.18;6.47;;;1.30;99.90;;;;;;5051646;28;20024;-74
2021/12/22 05:02:41;;;;;;;11.43;6.78;;;1.30;99.90;;;;;;5051144;28;20047;-74
2021/12/22 05:05:07;;;;;;;12.15;6.38;;;1.40;99.90;;;;;;5049907;28;20107;-74
2021/12/22 05:07:33;;;;;;;10.57;6.22;;;1.40;99.90;;;;;;5050949;28;20110;-74
2021/12/22 05:09:59;;;;;;;10.55;6.40;;;1.50;99.90;;;;;;5050056;28;20557;-74
2021/12/22 05:12:25;;;;;;;12.55;6.95;;;1.30;99.90;;;;;;5051192;28;20025;-74
2021/12/22 05:14:52;;;;;;;10.90;6.90;;;1.30;99.90;;;;;;5050415;28;20025;-75
2021/12/22 05:17:22;;;;;;;13.25;7.10;;;1.30;99.90;;;;;;5049482;28;20112;-74
2021/12/22 05:19:48;;;;;;;10.65;6.75;;;1.30;99.90;;;;;;5051097;28;20045;-74
2021/12/22 05:22:14;;;;;;;10.55;6.43;;;1.30;99.90;;;;;;5049422;28;20083;-74
2021/12/22 05:24:39;;;;;;;10.45;6.07;;;1.20;99.90;;;;;;5052677;28;20029;-74
2021/12/22 05:27:08;;;;;;;10.70;6.22;;;1.20;99.90;;;;;;5050644;28;20391;-74
2021/12/22 05:29:34;;;;;;;11.23;6.97;;;1.30;99.90;;;;;;5049017;28;20032;-74
2021/12/22 05:32:03;;;;;;;10.30;6.00;;;1.20;99.90;;;;;;5050207;28;20025;-74
2021/12/22 05:34:29;;;;;;;15.00;7.10;;;1.30;99.90;;;;;;5050964;28;20025;-75
2021/12/22 05:36:55;;;;;;;11.75;6.60;;;1.20;99.90;;;;;;5048868;28;20572;-74
2021/12/22 05:39:21;;;;;;;11.60;6.40;;;1.10;99.90;;;;;;5052007;28;20032;-74
2021/12/22 05:41:47;;;;;;;11.65;6.20;;;1.10;99.90;;;;;;5050306;28;20060;-75
2021/12/22 05:44:12;;;;;;;14.00;6.85;;;1.20;99.90;;;;;;5048835;28;20130;-75
2021/12/22 05:46:38;;;;;;;9.32;5.70;;;1.20;99.90;;;;;;5050321;28;20520;-75
2021/12/22 05:49:04;;;;;;;10.45;5.82;;;1.10;99.90;;;;;;5050489;28;20044;-74
2021/12/22 05:51:33;;;;;;;10.48;6.25;;;1.10;99.90;;;;;;5052352;28;20017;-74
2021/12/22 05:53:59;;;;;;;11.88;6.72;;;1.10;99.90;;;;;;5049896;28;20074;-75
2021/12/22 05:56:30;;;;;;;10.20;5.90;;;1.00;99.90;;;;;;5049585;28;20444;-74
2021/12/22 05:58:56;;;;;;;10.68;5.75;;;1.00;99.90;;;;;;5050215;28;20025;-74
2021/12/22 06:01:22;;;;;;;11.40;6.88;;;1.00;99.90;;;;;;5049893;28;20166;-74
2021/12/22 06:03:48;;;;;;;12.60;6.68;;;1.00;99.90;;;;;;5051296;28;20526;-74
2021/12/22 06:06:14;;;;;;;15.95;8.30;;;1.10;99.90;;;;;;5050520;28;20494;-74
2021/12/22 06:08:40;;;;;;;14.05;7.68;;;1.10;99.90;;;;;;5048211;28;20017;-74
2021/12/22 06:11:06;;;;;;;13.07;7.20;;;1.10;99.90;;;;;;5049418;28;20029;-74
2021/12/22 06:13:31;;;;;;;16.27;7.82;;;1.10;99.90;;;;;;5049819;28;20502;-75
2021/12/22 06:15:57;;;;;;;16.42;8.30;;;1.10;99.90;;;;;;5049928;28;20021;-74
2021/12/22 06:18:23;;;;;;;15.55;7.85;;;1.00;99.90;;;;;;5051233;28;20494;-74
2021/12/22 06:20:49;;;;;;;14.73;7.85;;;1.10;99.90;;;;;;5049394;28;20107;-74
2021/12/22 06:23:14;;;;;;;16.98;9.00;;;1.10;99.90;;;;;;5049673;28;20096;-74
2021/12/22 06:25:40;;;;;;;18.00;9.05;;;1.10;99.90;;;;;;5049491;28;20490;-74
2021/12/22 06:28:06;;;;;;;17.98;8.73;;;1.10;99.90;;;;;;5048317;28;20661;-75
2021/12/22 06:30:33;;;;;;;15.32;9.15;;;1.10;99.90;;;;;;5050890;28;20518;-74
2021/12/22 06:32:59;;;;;;;17.10;8.55;;;1.10;99.90;;;;;;5049537;28;20047;-74
2021/12/22 06:35:25;;;;;;;18.67;8.80;;;1.00;99.90;;;;;;5047646;28;20025;-74
2021/12/22 06:37:52;;;;;;;15.98;8.05;;;1.10;99.90;;;;;;5049142;28;20071;-74
2021/12/22 06:40:18;;;;;;;13.85;7.80;;;1.10;99.90;;;;;;5047752;28;20032;-74
2021/12/22 06:42:44;;;;;;;17.75;9.27;;;1.00;99.90;;;;;;5050767;28;20037;-74
2021/12/22 06:45:12;;;;;;;18.80;8.57;;;1.00;99.90;;;;;;5048876;28;20053;-74
2021/12/22 06:47:38;;;;;;;17.58;8.73;;;1.00;99.90;;;;;;5047426;28;20108;-74
2021/12/22 06:50:06;;;;;;;16.02;8.68;;;0.90;99.90;;;;;;5048393;28;20025;-74
2021/12/22 06:52:32;;;;;;;16.90;8.77;;;1.00;99.90;;;;;;5049170;28;20017;-74
2021/12/22 06:54:58;;;;;;;16.17;8.43;;;1.00;99.90;;;;;;5047833;28;20033;-74
2021/12/22 06:57:24;;;;;;;14.10;7.88;;;1.00;99.90;;;;;;5050431;28;20075;-74
2021/12/22 06:59:50;;;;;;;15.48;7.88;;;1.00;99.90;;;;;;5048913;28;20025;-75
2021/12/22 07:02:16;;;;;;;16.30;8.10;;;1.00;99.90;;;;;;5048805;28;20372;-75
2021/12/22 07:04:42;;;;;;;14.95;7.35;;;0.90;99.90;;;;;;5048670;28;20138;-74
2021/12/22 07:07:08;;;;;;;16.40;7.43;;;1.00;99.90;;;;;;5048492;28;20530;-74
2021/12/22 07:09:34;;;;;;;15.18;7.90;;;0.90;99.90;;;;;;5049764;28;20100;-74
2021/12/22 07:11:59;;;;;;;14.18;7.55;;;0.80;99.90;;;;;;5048463;28;20147;-74
2021/12/22 07:14:25;;;;;;;13.10;8.25;;;0.80;99.90;;;;;;5047210;28;20024;-74
2021/12/22 07:16:51;;;;;;;15.43;7.78;;;0.90;99.90;;;;;;5048437;28;20021;-74
2021/12/22 07:19:17;;;;;;;14.93;7.05;;;0.90;99.90;;;;;;5048839;28;20502;-74
2021/12/22 07:21:44;;;;;;;16.20;8.15;;;0.90;99.90;;;;;;5050665;28;20490;-74
2021/12/22 07:24:10;;;;;;;14.88;8.02;;;0.90;99.90;;;;;;5047854;28;20127;-74
2021/12/22 07:26:38;;;;;;;14.50;8.10;;;0.80;99.90;;;;;;5048528;28;20025;-74
2021/12/22 07:29:04;;;;;;;15.15;7.50;;;0.80;99.90;;;;;;5048821;28;20104;-74
2021/12/22 07:31:30;;;;;;;13.93;8.15;;;0.80;99.90;;;;;;5047069;28;20025;-75
2021/12/22 07:34:00;;;;;;;17.33;8.23;;;0.90;99.90;;;;;;5049099;28;20112;-74
2021/12/22 07:36:26;;;;;;;15.32;8.52;;;0.90;99.90;;;;;;5049736;28;20052;-75
2021/12/22 07:39:00;;;;;;;16.15;8.55;;;0.90;99.90;;;;;;5047974;28;20102;-74
2021/12/22 07:41:27;;;;;;;15.45;8.07;;;1.00;99.90;;;;;;5048157;28;20259;-75
2021/12/22 07:43:53;;;;;;;15.35;8.45;;;1.00;99.90;;;;;;5047682;28;20048;-74
2021/12/22 07:46:20;;;;;;;19.48;9.73;;;1.10;99.90;;;;;;5047946;28;20039;-75
2021/12/22 07:48:46;;;;;;;17.63;9.50;;;1.10;99.90;;;;;;5049937;28;20025;-74
2021/12/22 07:51:12;;;;;;;22.95;10.55;;;1.20;99.90;;;;;;5048676;28;20097;-74
2021/12/22 07:53:38;;;;;;;20.42;11.15;;;1.30;99.90;;;;;;5048051;28;20013;-74
2021/12/22 07:56:04;;;;;;;25.42;11.23;;;1.50;99.90;;;;;;5047964;28;20096;-74
2021/12/22 07:58:30;;;;;;;23.25;11.40;;;1.80;99.90;;;;;;5048660;28;20517;-74
2021/12/22 08:00:57;;;;;;;23.65;11.48;;;1.50;99.90;;;;;;5045837;28;20437;-74
2021/12/22 08:03:24;;;;;;;20.85;11.48;;;1.50;99.90;;;;;;5052105;28;20025;-74
2021/12/22 08:05:50;;;;;;;21.00;11.02;;;1.60;99.90;;;;;;5046515;28;20033;-74
2021/12/22 08:08:18;;;;;;;22.48;11.90;;;1.80;99.90;;;;;;5050842;28;20021;-74
2021/12/22 08:10:44;;;;;;;22.88;11.55;;;1.70;99.90;;;;;;5050161;28;20399;-74
2021/12/22 08:13:09;;;;;;;21.75;11.27;;;1.90;99.90;;;;;;5051657;28;20036;-73
2021/12/22 08:15:35;;;;;;;21.02;11.45;;;1.80;99.90;;;;;;5052454;28;20556;-75
2021/12/22 08:18:01;;;;;;;23.77;12.15;;;1.80;99.90;;;;;;5051709;28;20056;-74
2021/12/22 08:20:27;;;;;;;26.55;14.40;;;1.90;99.90;;;;;;5051521;28;20544;-74
2021/12/22 08:22:53;;;;;;;25.85;13.20;;;1.80;99.90;;;;;;5050621;28;20047;-74
2021/12/22 08:25:20;;;;;;;25.48;13.07;;;1.90;99.90;;;;;;5048842;28;20025;-74
2021/12/22 08:27:46;;;;;;;21.58;12.77;;;2.10;99.90;;;;;;5053408;28;20128;-74
2021/12/22 08:30:12;;;;;;;22.95;12.88;;;2.20;99.90;;;;;;5050573;28;20021;-74
2021/12/22 08:32:38;;;;;;;25.15;13.77;;;2.30;99.90;;;;;;5051191;28;20048;-74
2021/12/22 08:35:07;;;;;;;30.23;14.38;;;2.40;99.90;;;;;;5050663;28;20101;-74
2021/12/22 08:40:20;;;;;;;27.92;14.15;;;2.30;99.90;;;;;;5036127;28;20418;-74
2021/12/22 08:42:46;;;;;;;32.80;15.48;;;2.30;99.90;;;;;;5052883;28;20032;-74
2021/12/22 08:45:14;;;;;;;31.70;13.95;;;2.70;99.90;;;;;;5049979;28;20037;-74
2021/12/22 08:47:41;;;;;;;30.40;14.68;;;2.80;99.90;;;;;;5049609;28;20053;-74
2021/12/22 08:50:09;;;;;;;33.08;15.48;;;2.90;99.90;;;;;;5050969;28;20021;-74
2021/12/22 08:52:35;;;;;;;26.63;13.68;;;2.90;99.90;;;;;;5051097;28;20044;-74
2021/12/22 08:55:01;;;;;;;26.70;14.77;;;3.10;99.90;;;;;;5050569;28;20449;-74
2021/12/22 08:57:26;;;;;;;28.58;14.43;;;3.40;99.90;;;;;;5051627;28;20029;-74
2021/12/22 08:59:53;;;;;;;23.55;12.98;;;3.50;99.90;;;;;;5049558;28;20087;-75
2021/12/22 09:02:19;;;;;;;26.75;13.77;;;3.90;99.90;;;;;;5049576;28;20127;-74
2021/12/22 09:04:45;;;;;;;26.50;14.02;;;5.90;99.90;;;;;;5050060;28;20045;-75
2021/12/22 09:07:11;;;;;;;23.73;13.65;;;5.90;99.90;;;;;;5050022;28;20518;-74
2021/12/22 09:09:38;;;;;;;26.15;12.77;;;6.80;99.90;;;;;;5052347;28;20478;-74
2021/12/22 09:12:05;;;;;;;22.52;11.32;;;9.00;99.90;;;;;;5047945;28;20021;-75
2021/12/22 09:14:31;;;;;;;19.55;10.82;;;9.60;99.90;;;;;;5044881;28;20032;-74
2021/12/22 09:16:57;;;;;;;18.27;10.70;;;8.80;99.90;;;;;;5039693;28;20025;-74
2021/12/22 09:19:23;;;;;;;19.23;10.77;;;7.00;99.90;;;;;;5050228;28;20049;-74
2021/12/22 09:21:51;;;;;;;17.73;9.20;;;6.30;99.90;;;;;;5051376;28;20044;-74
2021/12/22 09:24:17;;;;;;;21.42;10.35;;;6.00;99.90;;;;;;5050466;28;20044;-74
2021/12/22 09:26:43;;;;;;;17.52;8.95;;;6.10;99.90;;;;;;5048159;28;20032;-74
2021/12/22 09:29:09;;;;;;;14.15;8.63;;;6.10;99.90;;;;;;5050507;28;20025;-74
2021/12/22 09:31:35;;;;;;;12.30;7.63;;;6.20;99.90;;;;;;5047884;28;20400;-75
2021/12/22 09:34:01;;;;;;;13.70;8.02;;;6.20;99.90;;;;;;5042600;28;20036;-74
2021/12/22 09:36:27;;;;;;;11.93;7.57;;;6.30;99.90;;;;;;5036361;28;20495;-75
2021/12/22 09:38:53;;;;;;;10.85;7.47;;;6.40;99.90;;;;;;5046605;28;20049;-75
2021/12/22 09:41:18;;;;;;;14.77;7.78;;;6.50;99.90;;;;;;5049020;28;20548;-74
2021/12/22 09:43:44;;;;;;;11.52;7.10;;;6.70;99.90;;;;;;5047419;28;20545;-74
2021/12/22 09:46:17;;;;;;;11.18;7.25;;;7.00;99.90;;;;;;5047734;28;20082;-74
2021/12/22 09:48:52;;;;;;;10.88;6.63;;;7.00;99.90;;;;;;5049740;28;20063;-74
2021/12/22 09:53:51;;;;;;;12.98;6.75;;;7.30;99.90;;;;;;5048134;28;20376;-74
2021/12/22 09:56:25;;;;;;;12.23;7.05;;;7.30;99.90;;;;;;5049026;28;20033;-74
2021/12/22 09:58:51;;;;;;;12.23;6.60;;;7.40;99.90;;;;;;5049051;28;20175;-74
2021/12/22 10:01:23;;;;;;;11.77;7.10;;;7.60;99.90;;;;;;5047394;28;20094;-74
2021/12/22 10:03:53;;;;;;;12.40;6.63;;;7.70;99.90;;;;;;5045925;28;20047;-75
2021/12/22 10:06:19;;;;;;;11.43;6.53;;;7.70;99.90;;;;;;5037686;28;20029;-74
2021/12/22 10:08:57;;;;;;;9.32;6.57;;;7.70;99.90;;;;;;5039305;28;20028;-74
2021/12/22 10:11:23;;;;;;;11.90;7.38;;;7.80;99.90;;;;;;5048346;28;20017;-75
2021/12/22 10:13:49;;;;;;;13.05;7.25;;;7.90;99.90;;;;;;5048527;28;20029;-75
2021/12/22 10:16:21;;;;;;;15.30;8.05;;;8.10;99.90;;;;;;5048010;28;20533;-75
2021/12/22 10:18:48;;;;;;;14.07;7.95;;;8.20;99.90;;;;;;5050536;28;20028;-75
2021/12/22 10:21:16;;;;;;;12.35;6.85;;;8.40;99.90;;;;;;5045769;28;20066;-75
2021/12/22 10:23:53;;;;;;;13.45;7.35;;;8.30;99.90;;;;;;5048167;28;20029;-76
2021/12/22 10:26:27;;;;;;;13.63;7.00;;;8.40;99.90;;;;;;5045016;28;20021;-75
2021/12/22 10:28:59;;;;;;;11.70;6.65;;;8.40;99.90;;;;;;5048518;28;20032;-76
2021/12/22 10:31:36;;;;;;;11.95;7.38;;;8.50;99.90;;;;;;5032735;28;20025;-76
2021/12/22 10:34:08;;;;;;;15.70;7.88;;;8.60;99.90;;;;;;5046022;28;20033;-76
2021/12/22 10:36:53;;;;;;;12.15;7.30;;;8.70;99.90;;;;;;5034910;28;20022;-76
2021/12/22 10:39:24;;;;;;;13.05;7.75;;;8.80;99.90;;;;;;5038171;28;20036;-75
2021/12/22 10:41:50;;;;;;;15.23;8.35;;;8.90;99.90;;;;;;5047551;28;20072;-75
2021/12/22 10:44:16;;;;;;;12.52;8.13;;;9.00;99.90;;;;;;5049006;28;20124;-76
2021/12/22 10:46:42;;;;;;;13.15;8.25;;;9.10;99.90;;;;;;5044493;28;20120;-75
2021/12/22 10:49:17;;;;;;;10.60;7.13;;;9.20;99.90;;;;;;5048027;28;20036;-76
2021/12/22 10:51:46;;;;;;;12.63;7.43;;;9.20;99.90;;;;;;5050824;28;20111;-75
2021/12/22 10:54:15;;;;;;;11.77;7.60;;;9.20;99.90;;;;;;5049042;28;20040;-75
2021/12/22 10:56:47;;;;;;;11.02;7.55;;;9.20;99.90;;;;;;5037270;28;20021;-76
2021/12/22 10:59:20;;;;;;;9.05;6.25;;;9.20;99.90;;;;;;5040566;28;20025;-76
2021/12/22 11:01:57;;;;;;;9.73;6.15;;;9.20;99.90;;;;;;5048352;28;20036;-75
2021/12/22 11:04:30;;;;;;;12.38;6.03;;;9.30;99.90;;;;;;5045312;28;20040;-75
2021/12/22 11:07:05;;;;;;;11.52;6.68;;;9.40;99.90;;;;;;5032537;28;20033;-75
2021/12/22 11:09:34;;;;;;;12.05;5.97;;;9.50;99.90;;;;;;5038604;28;20023;-76
2021/12/22 11:12:01;;;;;;;10.55;6.45;;;9.50;99.90;;;;;;5028446;28;20057;-76
2021/12/22 11:14:37;;;;;;;12.10;6.63;;;9.50;99.90;;;;;;5027940;28;20060;-76
2021/12/22 11:17:10;;;;;;;10.15;6.82;;;9.50;99.90;;;;;;5028803;28;20036;-75
2021/12/22 11:19:48;;;;;;;11.90;6.47;;;9.50;99.90;;;;;;5028022;28;20022;-76
2021/12/22 11:22:15;;;;;;;10.98;5.85;;;9.60;99.90;;;;;;5027616;28;20123;-76
2021/12/22 11:24:52;;;;;;;9.07;6.10;;;9.60;99.90;;;;;;5028586;28;20029;-75
2021/12/22 11:27:24;;;;;;;11.75;6.65;;;9.70;99.90;;;;;;5027658;28;20025;-76
2021/12/22 11:29:54;;;;;;;8.52;6.35;;;9.90;99.90;;;;;;5027134;28;20155;-76
2021/12/22 11:32:22;;;;;;;10.80;6.93;;;9.80;99.90;;;;;;5027511;28;20021;-75
2021/12/22 11:34:50;;;;;;;10.45;6.57;;;9.90;99.90;;;;;;5026959;28;20217;-75
2021/12/22 11:37:16;;;;;;;12.80;6.97;;;9.90;99.90;;;;;;5025694;28;20025;-75
2021/12/22 11:39:43;;;;;;;11.43;7.13;;;9.80;99.90;;;;;;5029154;28;20454;-75
2021/12/22 11:42:12;;;;;;;11.82;6.55;;;9.70;99.90;;;;;;5025771;28;20033;-76
2021/12/22 11:44:40;;;;;;;12.10;7.38;;;9.70;99.90;;;;;;5025089;28;20053;-76
2021/12/22 11:47:10;;;;;;;13.27;7.80;;;9.90;99.90;;;;;;5027145;28;20053;-76
2021/12/22 11:49:48;;;;;;;9.65;6.90;;;9.60;99.90;;;;;;5027228;28;20075;-76
2021/12/22 11:52:36;;;;;;;11.77;7.05;;;9.60;99.90;;;;;;5026303;28;20029;-75
2021/12/22 11:55:17;;;;;;;9.88;6.32;;;9.80;99.90;;;;;;5027804;28;20065;-76
2021/12/22 11:57:44;;;;;;;9.70;6.72;;;9.90;99.90;;;;;;5027495;28;20151;-76
2021/12/22 12:00:32;;;;;;;14.52;7.60;;;9.70;99.90;;;;;;5025424;28;20096;-75
2021/12/22 12:03:19;;;;;;;11.65;7.55;;;9.90;99.90;;;;;;5026756;28;20025;-75
2021/12/22 12:06:02;;;;;;;12.25;6.38;;;9.80;99.90;;;;;;5026210;28;20022;-75
2021/12/22 12:08:38;;;;;;;10.10;7.45;;;9.90;99.90;;;;;;5026056;28;20022;-75
2021/12/22 12:11:09;;;;;;;10.95;6.47;;;10.00;99.90;;;;;;5027722;28;20063;-76
2021/12/22 12:13:41;;;;;;;11.98;7.07;;;10.00;99.90;;;;;;5026101;28;20022;-75
2021/12/22 12:22:08;;;;;;;7.90;6.25;;;10.20;99.90;;;;;;5028935;28;19963;-77
2021/12/22 12:24:35;;;;;;;12.38;6.63;;;10.30;99.90;;;;;;5028734;28;20164;-76
2021/12/22 12:27:22;;;;;;;11.68;6.63;;;10.00;99.90;;;;;;5026914;28;20021;-77
2021/12/22 12:29:55;;;;;;;13.15;6.70;;;10.10;99.90;;;;;;5027034;28;20022;-76
2021/12/22 12:32:39;;;;;;;14.30;7.30;;;10.20;99.90;;;;;;5023522;28;20032;-77
2021/12/22 12:35:21;;;;;;;11.75;6.05;;;10.30;99.90;;;;;;5016994;28;20025;-77
2021/12/22 12:38:12;;;;;;;8.75;5.78;;;10.30;99.90;;;;;;5025816;28;20025;-77
2021/12/22 12:41:00;;;;;;;;;;;10.30;99.90;;;;;;5022243;28;20095;-76
2021/12/22 12:43:49;;;;;;;9.32;7.05;;;10.30;99.90;;;;;;5026463;28;20003;-77
2021/12/22 12:46:23;;;;;;;11.80;6.03;;;10.20;99.90;;;;;;5024830;28;20052;-77
2021/12/22 12:48:56;;;;;;;9.38;6.60;;;10.20;99.90;;;;;;5025322;28;20021;-77
2021/12/22 12:51:31;;;;;;;9.73;7.00;;;10.20;99.90;;;;;;5031052;28;20034;-77
2021/12/22 12:54:05;;;;;;;9.30;6.57;;;10.20;99.90;;;;;;5030655;28;20013;-77
2021/12/22 12:56:34;;;;;;;12.43;7.28;;;10.20;99.90;;;;;;5028777;28;20032;-78
2021/12/22 12:59:03;;;;;;;15.65;7.13;;;10.20;99.90;;;;;;5030562;28;20026;-77
2021/12/22 13:01:47;;;;;;;10.55;6.47;;;10.30;99.90;;;;;;5028079;28;20033;-77
2021/12/22 13:04:20;;;;;;;12.82;6.30;;;10.30;99.90;;;;;;5029501;28;20021;-78
2021/12/22 13:06:47;;;;;;;10.60;6.72;;;10.30;99.90;;;;;;5027994;28;20071;-77
2021/12/22 13:09:33;;;;;;;14.25;6.32;;;10.30;99.90;;;;;;5030386;28;20044;-77
2021/12/22 13:17:28;;;;;;;14.52;6.80;;;10.30;99.90;;;;;;5023259;28;20083;-77